Brig. Lysias Augusto Rodrigues Airport


Codes: SBCI/CLN
Name: Brig. Lysias Augusto Rodrigues Airport
City: Carolina
Country: Brazil
Elevation: 565 ft.

Photos at Brig. Lysias Augusto Rodrigues Airport


   Photos courtesy of SpottingLog. You can add your own sightings and photos by signing up for a free trial today.



No photos found.

Weather at Brig. Lysias Augusto Rodrigues Airport


Time (UTC)DescriptionTempratureWindCloud coverageVisibilityPressureHumidity
23-May-2024 21:00Broken Clouds33°C4 mph, SE52%10000m1010hPa40%
24-May-2024 00:00Broken Clouds30°C2 mph, E61%10000m1011hPa47%
24-May-2024 03:00Scattered Clouds26°C2 mph, NE30%10000m1012hPa55%
24-May-2024 06:00Broken Clouds24°C0 mph, NW64%10000m1011hPa61%
24-May-2024 09:00Overcast Clouds23°C4 mph, E88%10000m1012hPa66%
24-May-2024 12:00Overcast Clouds29°C7 mph, SE94%10000m1014hPa51%
24-May-2024 15:00Overcast Clouds34°C7 mph, E90%10000m1012hPa35%
24-May-2024 18:00Broken Clouds35°C4 mph, SE82%10000m1010hPa32%
24-May-2024 21:00Broken Clouds29°C2 mph, SE70%10000m1010hPa47%
25-May-2024 00:00Scattered Clouds27°C2 mph, E35%10000m1012hPa52%
25-May-2024 03:00Clear Sky25°C2 mph, N1%10000m1012hPa55%
25-May-2024 06:00Clear Sky24°C2 mph, NW1%10000m1011hPa62%
25-May-2024 09:00Clear Sky23°C2 mph, E3%10000m1012hPa67%
25-May-2024 12:00Clear Sky30°C2 mph, E10%10000m1013hPa48%
25-May-2024 15:00Clear Sky35°C7 mph, SE4%10000m1012hPa35%
25-May-2024 18:00Clear Sky36°C7 mph, E4%10000m1009hPa29%
25-May-2024 21:00Clear Sky30°C2 mph, E3%10000m1009hPa44%
26-May-2024 00:00Few Clouds27°C2 mph, NE11%10000m1011hPa48%
26-May-2024 03:00Broken Clouds26°C2 mph, NE78%10000m1012hPa50%
26-May-2024 06:00Scattered Clouds24°C2 mph, NW40%10000m1010hPa56%
26-May-2024 09:00Few Clouds23°C2 mph, E18%10000m1012hPa63%
26-May-2024 12:00Broken Clouds30°C2 mph, E53%10000m1014hPa49%
26-May-2024 15:00Scattered Clouds36°C4 mph, SE29%10000m1012hPa35%
26-May-2024 18:00Scattered Clouds36°C4 mph, SE48%10000m1009hPa31%
26-May-2024 21:00Overcast Clouds30°C2 mph, N100%10000m1009hPa46%
27-May-2024 00:00Overcast Clouds28°C2 mph, N94%10000m1011hPa50%
27-May-2024 03:00Broken Clouds27°C0 mph, NW66%10000m1012hPa58%
27-May-2024 06:00Broken Clouds27°C2 mph, N84%10000m1011hPa64%
27-May-2024 09:00Light Rain25°C4 mph, NE53%6882m1012hPa80%
27-May-2024 12:00Light Rain28°C2 mph, E58%10000m1015hPa70%
27-May-2024 15:00Light Rain34°C7 mph, E25%10000m1012hPa41%
27-May-2024 18:00Broken Clouds32°C2 mph, NW62%10000m1010hPa48%
27-May-2024 21:00Overcast Clouds30°C2 mph, NW90%10000m1010hPa53%
28-May-2024 00:00Broken Clouds28°C2 mph, W53%10000m1012hPa59%
28-May-2024 03:00Scattered Clouds26°C2 mph, NW36%10000m1012hPa70%
28-May-2024 06:00Scattered Clouds26°C2 mph, N50%10000m1011hPa70%
28-May-2024 09:00Light Rain24°C2 mph, N34%10000m1013hPa79%
28-May-2024 12:00Few Clouds30°C2 mph, NE23%10000m1015hPa59%
28-May-2024 15:00Few Clouds35°C4 mph, E13%10000m1013hPa36%
28-May-2024 18:00Few Clouds36°C7 mph, SE19%10000m1010hPa29%